sensor_id;sensor_type;location;lat;lon;timestamp;P1;durP1;ratioP1;P2;durP2;ratioP2
17866;SDS011;9059;49.934;8.650;2022-09-21T00:00:48;2.90;;;0.90;;
17866;SDS011;9059;49.934;8.650;2022-09-21T00:01:51;6.80;;;1.17;;
17866;SDS011;9059;49.934;8.650;2022-09-21T00:02:54;1.10;;;0.68;;
17866;SDS011;9059;49.934;8.650;2022-09-21T00:03:57;1.63;;;0.95;;
17866;SDS011;9059;49.934;8.650;2022-09-21T00:04:59;6.78;;;0.95;;
17866;SDS011;9059;49.934;8.650;2022-09-21T00:06:01;2.88;;;0.90;;
17866;SDS011;9059;49.934;8.650;2022-09-21T00:07:03;5.30;;;1.00;;
17866;SDS011;9059;49.934;8.650;2022-09-21T00:08:05;1.70;;;1.20;;
17866;SDS011;9059;49.934;8.650;2022-09-21T00:09:06;3.78;;;1.02;;
17866;SDS011;9059;49.934;8.650;2022-09-21T00:10:08;3.92;;;1.20;;
17866;SDS011;9059;49.934;8.650;2022-09-21T00:11:10;1.60;;;0.98;;
17866;SDS011;9059;49.934;8.650;2022-09-21T00:12:13;1.85;;;1.20;;
17866;SDS011;9059;49.934;8.650;2022-09-21T00:13:14;5.65;;;1.27;;
17866;SDS011;9059;49.934;8.650;2022-09-21T00:14:17;1.60;;;0.80;;
17866;SDS011;9059;49.934;8.650;2022-09-21T00:15:18;4.50;;;1.30;;
17866;SDS011;9059;49.934;8.650;2022-09-21T00:16:20;5.40;;;1.20;;
17866;SDS011;9059;49.934;8.650;2022-09-21T00:17:23;5.57;;;1.30;;
17866;SDS011;9059;49.934;8.650;2022-09-21T00:18:24;3.42;;;1.23;;
17866;SDS011;9059;49.934;8.650;2022-09-21T00:19:26;4.75;;;1.30;;
17866;SDS011;9059;49.934;8.650;2022-09-21T00:20:27;5.22;;;1.20;;
17866;SDS011;9059;49.934;8.650;2022-09-21T00:21:28;3.83;;;1.58;;
17866;SDS011;9059;49.934;8.650;2022-09-21T00:22:30;3.45;;;1.42;;
17866;SDS011;9059;49.934;8.650;2022-09-21T00:23:30;3.15;;;1.63;;
17866;SDS011;9059;49.934;8.650;2022-09-21T00:24:32;4.75;;;2.08;;
17866;SDS011;9059;49.934;8.650;2022-09-21T00:25:34;5.35;;;1.33;;
17866;SDS011;9059;49.934;8.650;2022-09-21T00:26:36;4.38;;;1.67;;
17866;SDS011;9059;49.934;8.650;2022-09-21T00:27:36;8.48;;;1.60;;
17866;SDS011;9059;49.934;8.650;2022-09-21T00:28:38;6.25;;;1.60;;
17866;SDS011;9059;49.934;8.650;2022-09-21T00:29:39;3.80;;;1.40;;
17866;SDS011;9059;49.934;8.650;2022-09-21T00:30:41;3.65;;;1.48;;
17866;SDS011;9059;49.934;8.650;2022-09-21T00:31:41;5.68;;;1.63;;
17866;SDS011;9059;49.934;8.650;2022-09-21T00:32:44;5.40;;;1.50;;
17866;SDS011;9059;49.934;8.650;2022-09-21T00:33:45;4.25;;;1.48;;
17866;SDS011;9059;49.934;8.650;2022-09-21T00:34:47;5.03;;;1.80;;
17866;SDS011;9059;49.934;8.650;2022-09-21T00:35:47;5.60;;;1.52;;
17866;SDS011;9059;49.934;8.650;2022-09-21T00:36:49;3.47;;;1.50;;
17866;SDS011;9059;49.934;8.650;2022-09-21T00:37:50;4.57;;;1.42;;
17866;SDS011;9059;49.934;8.650;2022-09-21T00:38:52;2.55;;;1.23;;
17866;SDS011;9059;49.934;8.650;2022-09-21T00:39:54;6.20;;;1.63;;
17866;SDS011;9059;49.934;8.650;2022-09-21T00:40:56;3.45;;;1.52;;
17866;SDS011;9059;49.934;8.650;2022-09-21T00:41:56;3.88;;;1.63;;
17866;SDS011;9059;49.934;8.650;2022-09-21T00:43:11;2.85;;;1.20;;
17866;SDS011;9059;49.934;8.650;2022-09-21T00:44:19;4.82;;;1.85;;
17866;SDS011;9059;49.934;8.650;2022-09-21T00:45:25;3.75;;;1.30;;
17866;SDS011;9059;49.934;8.650;2022-09-21T00:46:26;3.15;;;1.40;;
17866;SDS011;9059;49.934;8.650;2022-09-21T00:47:30;2.30;;;1.40;;
17866;SDS011;9059;49.934;8.650;2022-09-21T00:48:34;4.45;;;1.50;;
17866;SDS011;9059;49.934;8.650;2022-09-21T00:49:36;1.75;;;1.20;;
17866;SDS011;9059;49.934;8.650;2022-09-21T00:50:37;5.47;;;0.98;;
17866;SDS011;9059;49.934;8.650;2022-09-21T00:51:41;2.20;;;0.98;;
17866;SDS011;9059;49.934;8.650;2022-09-21T00:52:42;3.15;;;1.20;;
17866;SDS011;9059;49.934;8.650;2022-09-21T00:53:45;1.90;;;1.10;;
17866;SDS011;9059;49.934;8.650;2022-09-21T00:54:48;4.43;;;1.30;;
17866;SDS011;9059;49.934;8.650;2022-09-21T00:55:52;1.98;;;1.27;;
17866;SDS011;9059;49.934;8.650;2022-09-21T00:56:55;1.95;;;0.90;;
17866;SDS011;9059;49.934;8.650;2022-09-21T00:58:01;2.13;;;1.13;;
17866;SDS011;9059;49.934;8.650;2022-09-21T00:59:07;3.25;;;1.20;;
17866;SDS011;9059;49.934;8.650;2022-09-21T01:00:09;5.68;;;1.55;;
17866;SDS011;9059;49.934;8.650;2022-09-21T01:01:11;2.58;;;1.00;;
17866;SDS011;9059;49.934;8.650;2022-09-21T01:02:17;3.13;;;1.10;;
17866;SDS011;9059;49.934;8.650;2022-09-21T01:03:18;5.00;;;1.17;;
17866;SDS011;9059;49.934;8.650;2022-09-21T01:04:21;6.10;;;1.40;;
17866;SDS011;9059;49.934;8.650;2022-09-21T01:05:22;5.32;;;1.45;;
17866;SDS011;9059;49.934;8.650;2022-09-21T01:06:24;2.58;;;1.23;;
17866;SDS011;9059;49.934;8.650;2022-09-21T01:07:26;2.30;;;1.00;;
17866;SDS011;9059;49.934;8.650;2022-09-21T01:08:29;2.30;;;0.88;;
17866;SDS011;9059;49.934;8.650;2022-09-21T01:09:30;4.97;;;1.35;;
17866;SDS011;9059;49.934;8.650;2022-09-21T01:10:35;2.72;;;1.30;;
17866;SDS011;9059;49.934;8.650;2022-09-21T01:11:42;2.15;;;1.08;;
17866;SDS011;9059;49.934;8.650;2022-09-21T01:12:57;1.45;;;0.90;;
17866;SDS011;9059;49.934;8.650;2022-09-21T01:14:08;4.18;;;1.25;;
17866;SDS011;9059;49.934;8.650;2022-09-21T01:15:18;4.47;;;1.73;;
17866;SDS011;9059;49.934;8.650;2022-09-21T01:16:24;5.03;;;1.33;;
17866;SDS011;9059;49.934;8.650;2022-09-21T01:17:33;4.22;;;1.30;;
17866;SDS011;9059;49.934;8.650;2022-09-21T01:18:37;2.08;;;1.30;;
17866;SDS011;9059;49.934;8.650;2022-09-21T01:20:07;1.73;;;1.30;;
17866;SDS011;9059;49.934;8.650;2022-09-21T01:21:20;5.38;;;1.60;;
17866;SDS011;9059;49.934;8.650;2022-09-21T01:22:24;3.53;;;1.48;;
17866;SDS011;9059;49.934;8.650;2022-09-21T01:23:37;5.65;;;1.50;;
17866;SDS011;9059;49.934;8.650;2022-09-21T01:24:58;1.67;;;1.15;;
17866;SDS011;9059;49.934;8.650;2022-09-21T01:26:07;7.70;;;1.50;;
17866;SDS011;9059;49.934;8.650;2022-09-21T01:28:58;7.30;;;1.60;;
17866;SDS011;9059;49.934;8.650;2022-09-21T01:30:06;9.82;;;1.60;;
17866;SDS011;9059;49.934;8.650;2022-09-21T01:31:10;2.03;;;1.20;;
17866;SDS011;9059;49.934;8.650;2022-09-21T01:32:15;7.30;;;1.45;;
17866;SDS011;9059;49.934;8.650;2022-09-21T01:33:20;4.78;;;1.40;;
17866;SDS011;9059;49.934;8.650;2022-09-21T01:34:25;4.13;;;1.92;;
17866;SDS011;9059;49.934;8.650;2022-09-21T01:35:30;3.00;;;1.33;;
17866;SDS011;9059;49.934;8.650;2022-09-21T01:36:32;4.28;;;1.63;;
17866;SDS011;9059;49.934;8.650;2022-09-21T01:37:36;2.35;;;1.40;;
17866;SDS011;9059;49.934;8.650;2022-09-21T01:38:39;3.40;;;1.40;;
17866;SDS011;9059;49.934;8.650;2022-09-21T01:39:45;4.00;;;1.77;;
17866;SDS011;9059;49.934;8.650;2022-09-21T01:40:48;3.42;;;1.40;;
17866;SDS011;9059;49.934;8.650;2022-09-21T01:41:52;3.38;;;1.30;;
17866;SDS011;9059;49.934;8.650;2022-09-21T01:42:54;14.43;;;1.50;;
17866;SDS011;9059;49.934;8.650;2022-09-21T01:43:59;2.95;;;1.52;;
17866;SDS011;9059;49.934;8.650;2022-09-21T01:45:07;3.50;;;1.60;;
17866;SDS011;9059;49.934;8.650;2022-09-21T01:46:11;2.60;;;1.55;;
17866;SDS011;9059;49.934;8.650;2022-09-21T01:47:14;5.95;;;1.95;;
17866;SDS011;9059;49.934;8.650;2022-09-21T01:48:17;11.88;;;1.60;;
17866;SDS011;9059;49.934;8.650;2022-09-21T01:49:22;3.35;;;1.50;;
17866;SDS011;9059;49.934;8.650;2022-09-21T01:50:28;2.58;;;1.50;;
17866;SDS011;9059;49.934;8.650;2022-09-21T01:51:32;4.38;;;1.52;;
17866;SDS011;9059;49.934;8.650;2022-09-21T01:52:35;4.40;;;1.58;;
17866;SDS011;9059;49.934;8.650;2022-09-21T01:53:38;2.40;;;1.50;;
17866;SDS011;9059;49.934;8.650;2022-09-21T01:54:43;2.90;;;1.80;;
17866;SDS011;9059;49.934;8.650;2022-09-21T01:55:47;3.63;;;1.70;;
17866;SDS011;9059;49.934;8.650;2022-09-21T01:56:51;2.80;;;1.65;;
17866;SDS011;9059;49.934;8.650;2022-09-21T01:57:54;2.78;;;1.42;;
17866;SDS011;9059;49.934;8.650;2022-09-21T01:59:00;5.55;;;1.65;;
17866;SDS011;9059;49.934;8.650;2022-09-21T02:00:07;8.55;;;1.83;;
17866;SDS011;9059;49.934;8.650;2022-09-21T02:01:13;7.03;;;1.92;;
17866;SDS011;9059;49.934;8.650;2022-09-21T02:02:17;6.95;;;1.70;;
17866;SDS011;9059;49.934;8.650;2022-09-21T02:03:22;5.65;;;2.33;;
17866;SDS011;9059;49.934;8.650;2022-09-21T02:04:25;3.03;;;1.77;;
17866;SDS011;9059;49.934;8.650;2022-09-21T02:05:27;5.00;;;1.90;;
17866;SDS011;9059;49.934;8.650;2022-09-21T02:06:29;5.18;;;2.10;;
17866;SDS011;9059;49.934;8.650;2022-09-21T02:07:31;3.22;;;1.75;;
17866;SDS011;9059;49.934;8.650;2022-09-21T02:08:32;3.55;;;1.90;;
17866;SDS011;9059;49.934;8.650;2022-09-21T02:09:34;4.03;;;2.20;;
17866;SDS011;9059;49.934;8.650;2022-09-21T02:10:37;3.60;;;1.75;;
17866;SDS011;9059;49.934;8.650;2022-09-21T02:11:40;3.80;;;1.98;;
17866;SDS011;9059;49.934;8.650;2022-09-21T02:12:44;3.55;;;1.83;;
17866;SDS011;9059;49.934;8.650;2022-09-21T02:13:47;3.00;;;1.70;;
17866;SDS011;9059;49.934;8.650;2022-09-21T02:14:51;3.85;;;1.67;;
17866;SDS011;9059;49.934;8.650;2022-09-21T02:16:02;4.15;;;1.80;;
17866;SDS011;9059;49.934;8.650;2022-09-21T02:17:17;6.68;;;2.13;;
17866;SDS011;9059;49.934;8.650;2022-09-21T02:18:29;8.77;;;2.08;;
17866;SDS011;9059;49.934;8.650;2022-09-21T02:19:42;5.72;;;1.90;;
17866;SDS011;9059;49.934;8.650;2022-09-21T02:20:47;4.88;;;1.65;;
17866;SDS011;9059;49.934;8.650;2022-09-21T02:21:54;3.28;;;1.60;;
17866;SDS011;9059;49.934;8.650;2022-09-21T02:23:01;4.00;;;2.03;;
17866;SDS011;9059;49.934;8.650;2022-09-21T02:24:06;7.20;;;1.50;;
17866;SDS011;9059;49.934;8.650;2022-09-21T02:25:12;3.40;;;1.75;;
17866;SDS011;9059;49.934;8.650;2022-09-21T02:26:16;4.35;;;1.38;;
17866;SDS011;9059;49.934;8.650;2022-09-21T02:27:22;2.90;;;1.58;;
17866;SDS011;9059;49.934;8.650;2022-09-21T02:28:31;12.25;;;1.73;;
17866;SDS011;9059;49.934;8.650;2022-09-21T02:29:40;5.05;;;1.45;;
17866;SDS011;9059;49.934;8.650;2022-09-21T02:30:46;6.38;;;1.63;;
17866;SDS011;9059;49.934;8.650;2022-09-21T02:31:54;5.95;;;1.80;;
17866;SDS011;9059;49.934;8.650;2022-09-21T02:33:00;5.18;;;1.63;;
17866;SDS011;9059;49.934;8.650;2022-09-21T02:34:07;5.07;;;1.70;;
17866;SDS011;9059;49.934;8.650;2022-09-21T02:35:16;4.65;;;1.65;;
17866;SDS011;9059;49.934;8.650;2022-09-21T02:36:27;3.63;;;1.75;;
17866;SDS011;9059;49.934;8.650;2022-09-21T02:37:32;9.68;;;1.80;;
17866;SDS011;9059;49.934;8.650;2022-09-21T02:38:36;2.63;;;1.70;;
17866;SDS011;9059;49.934;8.650;2022-09-21T02:39:41;4.45;;;1.80;;
17866;SDS011;9059;49.934;8.650;2022-09-21T02:40:50;4.28;;;1.80;;
17866;SDS011;9059;49.934;8.650;2022-09-21T02:41:57;3.40;;;1.73;;
17866;SDS011;9059;49.934;8.650;2022-09-21T02:43:03;8.70;;;1.75;;
17866;SDS011;9059;49.934;8.650;2022-09-21T02:44:06;3.08;;;1.60;;
17866;SDS011;9059;49.934;8.650;2022-09-21T02:45:10;5.28;;;1.80;;
17866;SDS011;9059;49.934;8.650;2022-09-21T02:46:17;8.50;;;2.40;;
17866;SDS011;9059;49.934;8.650;2022-09-21T02:47:23;3.75;;;1.80;;
17866;SDS011;9059;49.934;8.650;2022-09-21T02:48:27;8.80;;;1.85;;
17866;SDS011;9059;49.934;8.650;2022-09-21T02:49:33;5.00;;;1.60;;
17866;SDS011;9059;49.934;8.650;2022-09-21T02:50:38;9.55;;;1.80;;
17866;SDS011;9059;49.934;8.650;2022-09-21T02:51:43;3.85;;;1.67;;
17866;SDS011;9059;49.934;8.650;2022-09-21T02:52:46;4.78;;;1.83;;
17866;SDS011;9059;49.934;8.650;2022-09-21T02:53:48;3.50;;;1.63;;
17866;SDS011;9059;49.934;8.650;2022-09-21T02:54:50;3.25;;;1.60;;
17866;SDS011;9059;49.934;8.650;2022-09-21T02:55:53;4.15;;;1.73;;
17866;SDS011;9059;49.934;8.650;2022-09-21T02:56:54;2.67;;;1.70;;
17866;SDS011;9059;49.934;8.650;2022-09-21T02:57:56;2.92;;;1.88;;
17866;SDS011;9059;49.934;8.650;2022-09-21T02:58:59;6.03;;;2.20;;
17866;SDS011;9059;49.934;8.650;2022-09-21T03:00:03;5.43;;;2.10;;
17866;SDS011;9059;49.934;8.650;2022-09-21T03:01:05;5.85;;;1.90;;
17866;SDS011;9059;49.934;8.650;2022-09-21T03:02:09;8.85;;;2.58;;
17866;SDS011;9059;49.934;8.650;2022-09-21T03:03:15;3.45;;;1.67;;
17866;SDS011;9059;49.934;8.650;2022-09-21T03:04:17;8.05;;;1.98;;
17866;SDS011;9059;49.934;8.650;2022-09-21T03:05:18;4.20;;;2.03;;
17866;SDS011;9059;49.934;8.650;2022-09-21T03:06:20;7.43;;;2.63;;
17866;SDS011;9059;49.934;8.650;2022-09-21T03:07:20;5.00;;;2.10;;
17866;SDS011;9059;49.934;8.650;2022-09-21T03:08:22;3.47;;;1.80;;
17866;SDS011;9059;49.934;8.650;2022-09-21T03:09:23;3.05;;;1.75;;
17866;SDS011;9059;49.934;8.650;2022-09-21T03:10:24;3.22;;;2.05;;
17866;SDS011;9059;49.934;8.650;2022-09-21T03:11:25;4.35;;;2.10;;
17866;SDS011;9059;49.934;8.650;2022-09-21T03:12:27;3.85;;;2.22;;
17866;SDS011;9059;49.934;8.650;2022-09-21T03:13:28;4.00;;;1.73;;
17866;SDS011;9059;49.934;8.650;2022-09-21T03:14:30;6.38;;;1.88;;
17866;SDS011;9059;49.934;8.650;2022-09-21T03:15:32;6.22;;;1.80;;
17866;SDS011;9059;49.934;8.650;2022-09-21T03:16:33;6.88;;;1.80;;
17866;SDS011;9059;49.934;8.650;2022-09-21T03:17:36;7.25;;;2.10;;
17866;SDS011;9059;49.934;8.650;2022-09-21T03:18:37;5.10;;;1.92;;
17866;SDS011;9059;49.934;8.650;2022-09-21T03:19:39;4.20;;;1.83;;
17866;SDS011;9059;49.934;8.650;2022-09-21T03:20:42;2.55;;;1.77;;
17866;SDS011;9059;49.934;8.650;2022-09-21T03:21:45;3.33;;;1.60;;
17866;SDS011;9059;49.934;8.650;2022-09-21T03:22:46;3.58;;;1.77;;
17866;SDS011;9059;49.934;8.650;2022-09-21T03:23:47;6.47;;;2.00;;
17866;SDS011;9059;49.934;8.650;2022-09-21T03:24:48;3.25;;;2.08;;
17866;SDS011;9059;49.934;8.650;2022-09-21T03:25:50;3.13;;;1.73;;
17866;SDS011;9059;49.934;8.650;2022-09-21T03:26:51;4.72;;;1.60;;
17866;SDS011;9059;49.934;8.650;2022-09-21T03:27:53;3.50;;;1.95;;
17866;SDS011;9059;49.934;8.650;2022-09-21T03:28:54;4.47;;;1.90;;
17866;SDS011;9059;49.934;8.650;2022-09-21T03:29:55;4.53;;;1.90;;
17866;SDS011;9059;49.934;8.650;2022-09-21T03:30:56;3.65;;;1.60;;
17866;SDS011;9059;49.934;8.650;2022-09-21T03:31:58;3.78;;;1.80;;
17866;SDS011;9059;49.934;8.650;2022-09-21T03:33:00;9.23;;;2.10;;
17866;SDS011;9059;49.934;8.650;2022-09-21T03:34:04;6.15;;;1.92;;
17866;SDS011;9059;49.934;8.650;2022-09-21T03:35:05;2.53;;;1.70;;
17866;SDS011;9059;49.934;8.650;2022-09-21T03:36:07;6.93;;;1.73;;
17866;SDS011;9059;49.934;8.650;2022-09-21T03:37:09;3.60;;;1.73;;
17866;SDS011;9059;49.934;8.650;2022-09-21T03:38:10;2.60;;;1.58;;
17866;SDS011;9059;49.934;8.650;2022-09-21T03:39:12;3.38;;;1.63;;
17866;SDS011;9059;49.934;8.650;2022-09-21T03:40:13;4.53;;;1.67;;
17866;SDS011;9059;49.934;8.650;2022-09-21T03:41:15;2.17;;;1.50;;
17866;SDS011;9059;49.934;8.650;2022-09-21T03:42:16;2.97;;;1.63;;
17866;SDS011;9059;49.934;8.650;2022-09-21T03:43:17;4.47;;;1.80;;
17866;SDS011;9059;49.934;8.650;2022-09-21T03:44:18;2.75;;;1.60;;
17866;SDS011;9059;49.934;8.650;2022-09-21T03:45:20;3.67;;;1.65;;
17866;SDS011;9059;49.934;8.650;2022-09-21T03:46:21;3.53;;;1.33;;
17866;SDS011;9059;49.934;8.650;2022-09-21T03:47:23;2.28;;;1.50;;
17866;SDS011;9059;49.934;8.650;2022-09-21T03:48:25;2.28;;;1.33;;
17866;SDS011;9059;49.934;8.650;2022-09-21T03:49:27;5.72;;;1.90;;
17866;SDS011;9059;49.934;8.650;2022-09-21T03:50:28;2.65;;;1.50;;
17866;SDS011;9059;49.934;8.650;2022-09-21T03:51:30;2.92;;;1.42;;
17866;SDS011;9059;49.934;8.650;2022-09-21T03:52:31;2.92;;;1.88;;
17866;SDS011;9059;49.934;8.650;2022-09-21T03:53:33;2.33;;;1.40;;
17866;SDS011;9059;49.934;8.650;2022-09-21T03:54:33;2.65;;;1.55;;
17866;SDS011;9059;49.934;8.650;2022-09-21T03:55:35;3.25;;;1.67;;
17866;SDS011;9059;49.934;8.650;2022-09-21T03:56:36;2.78;;;1.70;;
17866;SDS011;9059;49.934;8.650;2022-09-21T03:57:38;3.55;;;1.50;;
17866;SDS011;9059;49.934;8.650;2022-09-21T03:58:38;2.75;;;1.52;;
17866;SDS011;9059;49.934;8.650;2022-09-21T03:59:40;2.28;;;1.27;;
17866;SDS011;9059;49.934;8.650;2022-09-21T04:00:41;2.20;;;1.45;;
17866;SDS011;9059;49.934;8.650;2022-09-21T04:01:43;3.22;;;1.80;;
17866;SDS011;9059;49.934;8.650;2022-09-21T04:02:43;2.50;;;1.48;;
17866;SDS011;9059;49.934;8.650;2022-09-21T04:03:46;2.80;;;1.67;;
17866;SDS011;9059;49.934;8.650;2022-09-21T04:04:48;3.03;;;1.25;;
17866;SDS011;9059;49.934;8.650;2022-09-21T04:05:49;5.22;;;1.50;;
17866;SDS011;9059;49.934;8.650;2022-09-21T04:06:51;2.25;;;1.08;;
17866;SDS011;9059;49.934;8.650;2022-09-21T04:07:52;3.47;;;1.65;;
17866;SDS011;9059;49.934;8.650;2022-09-21T04:08:55;2.00;;;1.25;;
17866;SDS011;9059;49.934;8.650;2022-09-21T04:09:55;3.42;;;1.63;;
17866;SDS011;9059;49.934;8.650;2022-09-21T04:10:57;2.65;;;1.42;;
17866;SDS011;9059;49.934;8.650;2022-09-21T04:11:58;1.90;;;1.33;;
17866;SDS011;9059;49.934;8.650;2022-09-21T04:13:00;3.65;;;1.60;;
17866;SDS011;9059;49.934;8.650;2022-09-21T04:14:01;2.95;;;1.40;;
17866;SDS011;9059;49.934;8.650;2022-09-21T04:15:05;2.67;;;1.42;;
17866;SDS011;9059;49.934;8.650;2022-09-21T04:16:06;2.47;;;1.40;;
17866;SDS011;9059;49.934;8.650;2022-09-21T04:17:08;2.22;;;1.42;;
17866;SDS011;9059;49.934;8.650;2022-09-21T04:18:11;2.53;;;1.25;;
17866;SDS011;9059;49.934;8.650;2022-09-21T04:19:14;2.50;;;1.20;;
17866;SDS011;9059;49.934;8.650;2022-09-21T04:20:15;4.50;;;1.45;;
17866;SDS011;9059;49.934;8.650;2022-09-21T04:21:17;3.58;;;1.50;;
17866;SDS011;9059;49.934;8.650;2022-09-21T04:22:18;4.78;;;1.50;;
17866;SDS011;9059;49.934;8.650;2022-09-21T04:23:20;3.78;;;1.25;;
17866;SDS011;9059;49.934;8.650;2022-09-21T04:24:22;1.92;;;1.25;;
17866;SDS011;9059;49.934;8.650;2022-09-21T04:25:24;4.47;;;1.63;;
17866;SDS011;9059;49.934;8.650;2022-09-21T04:26:25;1.88;;;1.13;;
17866;SDS011;9059;49.934;8.650;2022-09-21T04:27:28;2.55;;;1.33;;
17866;SDS011;9059;49.934;8.650;2022-09-21T04:28:28;3.58;;;1.40;;
17866;SDS011;9059;49.934;8.650;2022-09-21T04:29:32;3.10;;;1.35;;
17866;SDS011;9059;49.934;8.650;2022-09-21T04:30:32;1.98;;;1.33;;
17866;SDS011;9059;49.934;8.650;2022-09-21T04:31:34;2.40;;;1.30;;
17866;SDS011;9059;49.934;8.650;2022-09-21T04:32:35;1.60;;;1.25;;
17866;SDS011;9059;49.934;8.650;2022-09-21T04:33:36;2.08;;;1.20;;
17866;SDS011;9059;49.934;8.650;2022-09-21T04:34:38;1.95;;;1.10;;
17866;SDS011;9059;49.934;8.650;2022-09-21T04:35:40;1.73;;;1.23;;
17866;SDS011;9059;49.934;8.650;2022-09-21T04:36:41;3.00;;;1.13;;
17866;SDS011;9059;49.934;8.650;2022-09-21T04:37:43;2.00;;;1.27;;
17866;SDS011;9059;49.934;8.650;2022-09-21T04:38:44;1.45;;;1.00;;
17866;SDS011;9059;49.934;8.650;2022-09-21T04:39:45;2.63;;;1.20;;
17866;SDS011;9059;49.934;8.650;2022-09-21T04:40:53;3.53;;;1.35;;
17866;SDS011;9059;49.934;8.650;2022-09-21T04:41:55;3.97;;;1.67;;
17866;SDS011;9059;49.934;8.650;2022-09-21T04:42:56;2.30;;;1.40;;
17866;SDS011;9059;49.934;8.650;2022-09-21T04:43:57;2.10;;;1.33;;
17866;SDS011;9059;49.934;8.650;2022-09-21T04:44:59;2.35;;;1.42;;
17866;SDS011;9059;49.934;8.650;2022-09-21T04:46:03;2.03;;;1.30;;
17866;SDS011;9059;49.934;8.650;2022-09-21T04:47:04;2.15;;;1.30;;
17866;SDS011;9059;49.934;8.650;2022-09-21T04:48:06;4.68;;;1.40;;
17866;SDS011;9059;49.934;8.650;2022-09-21T04:49:07;4.38;;;1.65;;
17866;SDS011;9059;49.934;8.650;2022-09-21T04:50:11;3.13;;;1.35;;
17866;SDS011;9059;49.934;8.650;2022-09-21T04:51:12;2.25;;;1.45;;
17866;SDS011;9059;49.934;8.650;2022-09-21T04:52:14;4.18;;;1.85;;
17866;SDS011;9059;49.934;8.650;2022-09-21T04:53:15;3.35;;;1.67;;
17866;SDS011;9059;49.934;8.650;2022-09-21T04:54:17;3.38;;;1.45;;
17866;SDS011;9059;49.934;8.650;2022-09-21T04:55:17;3.72;;;1.42;;
17866;SDS011;9059;49.934;8.650;2022-09-21T04:56:19;2.08;;;1.23;;
17866;SDS011;9059;49.934;8.650;2022-09-21T04:57:20;5.72;;;1.30;;
17866;SDS011;9059;49.934;8.650;2022-09-21T04:58:21;6.80;;;1.50;;
17866;SDS011;9059;49.934;8.650;2022-09-21T04:59:23;2.58;;;1.45;;
17866;SDS011;9059;49.934;8.650;2022-09-21T05:00:25;4.97;;;1.50;;
17866;SDS011;9059;49.934;8.650;2022-09-21T05:01:26;2.92;;;1.30;;
17866;SDS011;9059;49.934;8.650;2022-09-21T05:02:27;2.28;;;1.27;;
17866;SDS011;9059;49.934;8.650;2022-09-21T05:03:28;2.35;;;1.48;;
17866;SDS011;9059;49.934;8.650;2022-09-21T05:04:30;4.35;;;1.40;;
17866;SDS011;9059;49.934;8.650;2022-09-21T05:05:32;1.33;;;1.10;;
17866;SDS011;9059;49.934;8.650;2022-09-21T05:06:34;2.47;;;1.20;;
17866;SDS011;9059;49.934;8.650;2022-09-21T05:07:34;2.67;;;1.30;;
17866;SDS011;9059;49.934;8.650;2022-09-21T05:08:36;2.00;;;1.10;;
17866;SDS011;9059;49.934;8.650;2022-09-21T05:09:55;1.85;;;1.20;;
17866;SDS011;9059;49.934;8.650;2022-09-21T05:11:02;2.90;;;1.33;;
17866;SDS011;9059;49.934;8.650;2022-09-21T05:12:04;2.03;;;1.27;;
17866;SDS011;9059;49.934;8.650;2022-09-21T05:13:06;5.93;;;1.20;;
17866;SDS011;9059;49.934;8.650;2022-09-21T05:14:07;1.80;;;1.17;;
17866;SDS011;9059;49.934;8.650;2022-09-21T05:15:09;2.33;;;1.27;;
17866;SDS011;9059;49.934;8.650;2022-09-21T05:16:10;1.88;;;1.23;;
17866;SDS011;9059;49.934;8.650;2022-09-21T05:17:12;1.90;;;1.20;;
17866;SDS011;9059;49.934;8.650;2022-09-21T05:18:13;3.10;;;1.20;;
17866;SDS011;9059;49.934;8.650;2022-09-21T05:19:14;2.13;;;1.20;;
17866;SDS011;9059;49.934;8.650;2022-09-21T05:20:15;1.70;;;1.02;;
17866;SDS011;9059;49.934;8.650;2022-09-21T05:21:18;2.10;;;1.13;;
17866;SDS011;9059;49.934;8.650;2022-09-21T05:22:19;1.85;;;1.00;;
17866;SDS011;9059;49.934;8.650;2022-09-21T05:23:21;1.90;;;1.17;;
17866;SDS011;9059;49.934;8.650;2022-09-21T05:24:22;2.45;;;1.17;;
17866;SDS011;9059;49.934;8.650;2022-09-21T05:25:23;1.70;;;0.90;;
17866;SDS011;9059;49.934;8.650;2022-09-21T05:26:24;1.83;;;1.00;;
17866;SDS011;9059;49.934;8.650;2022-09-21T05:27:26;2.03;;;1.23;;
17866;SDS011;9059;49.934;8.650;2022-09-21T05:28:27;2.78;;;1.10;;
17866;SDS011;9059;49.934;8.650;2022-09-21T05:29:29;1.42;;;0.80;;
17866;SDS011;9059;49.934;8.650;2022-09-21T05:30:31;2.08;;;1.20;;
17866;SDS011;9059;49.934;8.650;2022-09-21T05:31:38;1.50;;;0.90;;
17866;SDS011;9059;49.934;8.650;2022-09-21T05:32:43;1.88;;;0.90;;
17866;SDS011;9059;49.934;8.650;2022-09-21T05:33:47;3.30;;;0.90;;
17866;SDS011;9059;49.934;8.650;2022-09-21T05:34:52;1.55;;;0.90;;
17866;SDS011;9059;49.934;8.650;2022-09-21T05:36:00;3.00;;;1.08;;
17866;SDS011;9059;49.934;8.650;2022-09-21T05:37:09;2.75;;;1.27;;
17866;SDS011;9059;49.934;8.650;2022-09-21T05:38:15;1.92;;;1.10;;
17866;SDS011;9059;49.934;8.650;2022-09-21T05:39:17;2.35;;;1.10;;
17866;SDS011;9059;49.934;8.650;2022-09-21T05:40:20;2.65;;;1.02;;
17866;SDS011;9059;49.934;8.650;2022-09-21T05:41:21;1.42;;;0.98;;
17866;SDS011;9059;49.934;8.650;2022-09-21T05:42:23;1.92;;;0.90;;
17866;SDS011;9059;49.934;8.650;2022-09-21T05:43:25;1.35;;;0.98;;
17866;SDS011;9059;49.934;8.650;2022-09-21T05:44:27;1.80;;;1.08;;
17866;SDS011;9059;49.934;8.650;2022-09-21T05:45:28;1.38;;;0.90;;
17866;SDS011;9059;49.934;8.650;2022-09-21T05:46:32;1.60;;;1.00;;
17866;SDS011;9059;49.934;8.650;2022-09-21T05:47:37;1.83;;;0.93;;
17866;SDS011;9059;49.934;8.650;2022-09-21T05:48:40;1.63;;;1.15;;
17866;SDS011;9059;49.934;8.650;2022-09-21T05:49:44;1.13;;;0.75;;
17866;SDS011;9059;49.934;8.650;2022-09-21T05:50:52;1.60;;;0.90;;
17866;SDS011;9059;49.934;8.650;2022-09-21T05:51:58;4.00;;;1.20;;
17866;SDS011;9059;49.934;8.650;2022-09-21T05:53:07;2.60;;;1.00;;
17866;SDS011;9059;49.934;8.650;2022-09-21T05:54:20;2.03;;;1.05;;
17866;SDS011;9059;49.934;8.650;2022-09-21T05:55:23;2.22;;;1.25;;
17866;SDS011;9059;49.934;8.650;2022-09-21T05:56:31;1.70;;;0.98;;
17866;SDS011;9059;49.934;8.650;2022-09-21T05:57:42;1.98;;;1.17;;
17866;SDS011;9059;49.934;8.650;2022-09-21T05:58:47;2.13;;;1.10;;
17866;SDS011;9059;49.934;8.650;2022-09-21T05:59:59;3.30;;;1.10;;
17866;SDS011;9059;49.934;8.650;2022-09-21T06:01:14;1.35;;;0.95;;
17866;SDS011;9059;49.934;8.650;2022-09-21T06:02:24;1.23;;;0.73;;
17866;SDS011;9059;49.934;8.650;2022-09-21T06:03:29;6.07;;;1.17;;
17866;SDS011;9059;49.934;8.650;2022-09-21T06:04:35;1.45;;;0.98;;
17866;SDS011;9059;49.934;8.650;2022-09-21T06:05:36;1.73;;;1.05;;
17866;SDS011;9059;49.934;8.650;2022-09-21T06:06:38;1.23;;;0.88;;
17866;SDS011;9059;49.934;8.650;2022-09-21T06:07:38;1.42;;;0.82;;
17866;SDS011;9059;49.934;8.650;2022-09-21T06:08:42;1.48;;;0.90;;
17866;SDS011;9059;49.934;8.650;2022-09-21T06:09:42;2.17;;;0.82;;
17866;SDS011;9059;49.934;8.650;2022-09-21T06:10:44;2.10;;;0.90;;
17866;SDS011;9059;49.934;8.650;2022-09-21T06:11:45;1.95;;;0.70;;
17866;SDS011;9059;49.934;8.650;2022-09-21T06:12:47;1.90;;;1.10;;
17866;SDS011;9059;49.934;8.650;2022-09-21T06:13:48;6.28;;;1.13;;
17866;SDS011;9059;49.934;8.650;2022-09-21T06:14:50;5.55;;;1.15;;
17866;SDS011;9059;49.934;8.650;2022-09-21T06:15:51;1.20;;;0.95;;
17866;SDS011;9059;49.934;8.650;2022-09-21T06:16:52;2.70;;;1.00;;
17866;SDS011;9059;49.934;8.650;2022-09-21T06:17:54;2.30;;;1.00;;
17866;SDS011;9059;49.934;8.650;2022-09-21T06:18:55;2.25;;;1.05;;
17866;SDS011;9059;49.934;8.650;2022-09-21T06:19:57;1.00;;;0.82;;
17866;SDS011;9059;49.934;8.650;2022-09-21T06:20:57;1.58;;;0.80;;
17866;SDS011;9059;49.934;8.650;2022-09-21T06:22:02;1.60;;;0.90;;
17866;SDS011;9059;49.934;8.650;2022-09-21T06:23:03;2.22;;;1.08;;
17866;SDS011;9059;49.934;8.650;2022-09-21T06:24:07;2.42;;;1.00;;
17866;SDS011;9059;49.934;8.650;2022-09-21T06:25:08;1.70;;;1.20;;
17866;SDS011;9059;49.934;8.650;2022-09-21T06:26:10;1.35;;;1.02;;
17866;SDS011;9059;49.934;8.650;2022-09-21T06:27:11;3.75;;;0.80;;
17866;SDS011;9059;49.934;8.650;2022-09-21T06:28:12;6.22;;;1.23;;
17866;SDS011;9059;49.934;8.650;2022-09-21T06:29:13;1.48;;;0.82;;